Time;durP1;ratioP1;P1;durP2;ratioP2;P2;SDS_P1;SDS_P2;PMS_P1;PMS_P2;Temp;Humidity;BMP_temperature;BMP_pressure;BME280_temperature;BME280_humidity;BME280_pressure;Samples;Min_cycle;Max_cycle;Signal;HPM_P1;HPM_P2
2021/12/05 00:17:44;;;;;;;5.20;2.53;;;;;11.30;99500.00;;;;5055868;28;20202;-80
2021/12/05 00:20:38;;;;;;;11.27;2.22;;;;;11.30;99494.00;;;;5075569;28;20233;-80
2021/12/05 00:23:10;;;;;;;5.18;1.90;;;;;11.20;99499.00;;;;5065223;28;20244;-79
2021/12/05 00:25:41;;;;;;;5.60;2.10;;;;;11.20;99501.00;;;;5069247;28;20742;-80
2021/12/05 00:28:34;;;;;;;4.95;2.33;;;;;11.20;99505.00;;;;5069441;28;20198;-79
2021/12/05 00:31:17;;;;;;;4.88;1.98;;;;;11.10;99500.00;;;;5069880;28;20274;-79
2021/12/05 00:34:00;;;;;;;7.90;1.90;;;;;11.10;99488.00;;;;5068375;28;20692;-80
2021/12/05 00:39:41;;;;;;;8.18;1.70;;;;;11.00;99489.00;;;;5075491;28;20233;-81
2021/12/05 00:42:36;;;;;;;5.18;2.22;;;;;10.90;99488.00;;;;5088955;28;20258;-80
2021/12/05 00:47:59;;;;;;;7.30;2.58;;;;;10.90;99481.00;;;;5068958;28;20195;-80
2021/12/05 00:50:58;;;;;;;3.67;1.70;;;;;10.90;99495.00;;;;5059467;28;20234;-81
2021/12/05 00:54:03;;;;;;;3.03;1.58;;;;;10.90;99501.00;;;;5076882;28;20688;-80
2021/12/05 00:56:38;;;;;;;4.97;2.38;;;;;10.80;99506.00;;;;5072680;28;20664;-80
2021/12/05 01:07:27;;;;;;;4.35;2.05;;;;;10.80;99508.00;;;;5041810;28;20584;-81
2021/12/05 01:10:08;;;;;;;6.80;2.20;;;;;10.80;99504.00;;;;5088517;28;20257;-80
2021/12/05 01:12:50;;;;;;;4.53;1.70;;;;;10.80;99512.00;;;;5048710;28;20545;-80
2021/12/05 01:15:23;;;;;;;4.72;1.67;;;;;10.80;99516.00;;;;5074914;28;20277;-80
2021/12/05 01:18:00;;;;;;;4.28;1.88;;;;;10.80;99511.00;;;;5089272;28;20194;-80
2021/12/05 01:20:29;;;;;;;2.08;1.40;;;;;10.80;99514.00;;;;5070745;28;20202;-79
2021/12/05 01:23:02;;;;;;;3.92;1.88;;;;;10.80;99509.00;;;;5083581;28;21028;-81
2021/12/05 01:25:40;;;;;;;4.22;1.70;;;;;10.70;99515.00;;;;5079077;28;20259;-80
2021/12/05 01:28:20;;;;;;;10.05;2.30;;;;;10.70;99513.00;;;;5081108;28;20268;-80
2021/12/05 01:30:55;;;;;;;4.85;2.05;;;;;10.70;99511.00;;;;5068568;28;20590;-80
2021/12/05 01:33:30;;;;;;;6.57;2.13;;;;;10.70;99516.00;;;;5067703;28;20281;-80
2021/12/05 01:36:13;;;;;;;2.42;1.40;;;;;10.70;99524.00;;;;5082913;28;20194;-80
2021/12/05 01:39:12;;;;;;;7.35;1.90;;;;;10.70;99514.00;;;;5069622;28;20249;-80
2021/12/05 01:47:49;;;;;;;5.85;1.65;;;;;10.70;99518.00;;;;5049023;28;20287;-80
2021/12/05 01:50:50;;;;;;;4.95;2.42;;;;;10.70;99513.00;;;;5079126;28;20225;-81
2021/12/05 01:59:10;;;;;;;3.95;1.55;;;;;10.60;99523.00;;;;5078227;28;20733;-80
2021/12/05 02:01:54;;;;;;;3.08;1.73;;;;;10.60;99513.00;;;;5088253;28;20723;-81
2021/12/05 02:16:01;;;;;;;4.15;1.30;;;;;10.40;99511.00;;;;5067338;28;20206;-81
2021/12/05 02:30:06;;;;;;;3.15;1.05;;;;;10.40;99510.00;;;;5068535;28;20269;-81
2021/12/05 02:35:26;;;;;;;3.45;1.20;;;;;10.40;99498.00;;;;5084653;28;20336;-80
2021/12/05 02:38:15;;;;;;;6.97;1.50;;;;;10.40;99504.00;;;;5072509;28;20245;-81
2021/12/05 02:41:08;;;;;;;3.05;0.93;;;;;10.40;99507.00;;;;5068674;28;20588;-80
2021/12/05 02:43:38;;;;;;;4.57;0.90;;;;;10.40;99505.00;;;;5076768;28;20217;-81
2021/12/05 02:46:07;;;;;;;3.88;1.17;;;;;10.40;99505.00;;;;5090041;28;20217;-81
2021/12/05 02:48:37;;;;;;;3.83;1.48;;;;;10.40;99508.00;;;;5078974;28;20738;-80
2021/12/05 02:51:09;;;;;;;3.00;1.38;;;;;10.30;99505.00;;;;5067354;28;20194;-81
2021/12/05 02:53:41;;;;;;;3.72;1.30;;;;;10.30;99500.00;;;;5067023;28;20183;-80
2021/12/05 02:56:11;;;;;;;4.18;1.13;;;;;10.30;99507.00;;;;5071700;28;20260;-81
2021/12/05 02:58:44;;;;;;;3.15;1.23;;;;;10.30;99507.00;;;;5077357;28;20203;-81
2021/12/05 03:01:19;;;;;;;3.28;1.02;;;;;10.30;99505.00;;;;5071716;28;20203;-80
2021/12/05 03:03:47;;;;;;;3.15;1.50;;;;;10.40;99513.00;;;;5064446;28;20195;-80
2021/12/05 03:06:23;;;;;;;5.68;1.20;;;;;10.30;99508.00;;;;5061044;28;20677;-80
2021/12/05 03:08:55;;;;;;;2.33;1.15;;;;;10.30;99505.00;;;;5064047;28;20201;-80
2021/12/05 03:11:23;;;;;;;4.20;1.45;;;;;10.40;99507.00;;;;5070393;28;20199;-80
2021/12/05 03:13:51;;;;;;;3.75;1.20;;;;;10.40;99501.00;;;;5070858;28;20198;-81
2021/12/05 03:16:20;;;;;;;3.33;1.15;;;;;10.40;99504.00;;;;5072146;28;20214;-81
2021/12/05 03:18:48;;;;;;;3.90;0.90;;;;;10.40;99496.00;;;;5079041;28;20198;-80
2021/12/05 03:21:17;;;;;;;5.07;0.80;;;;;10.50;99504.00;;;;5083971;28;20225;-81
2021/12/05 03:23:46;;;;;;;6.22;1.10;;;;;10.50;99500.00;;;;5076906;28;20206;-81
2021/12/05 03:26:19;;;;;;;2.97;1.30;;;;;10.50;99502.00;;;;5069943;28;20195;-80
2021/12/05 03:28:49;;;;;;;3.60;1.15;;;;;10.50;99498.00;;;;5070723;28;20615;-81
2021/12/05 03:31:16;;;;;;;4.45;1.27;;;;;10.50;99513.00;;;;5056421;28;20204;-80
2021/12/05 03:33:44;;;;;;;3.78;1.20;;;;;10.50;99509.00;;;;5071050;28;20187;-80
2021/12/05 03:36:12;;;;;;;3.58;1.15;;;;;10.50;99508.00;;;;5069439;28;20231;-80
2021/12/05 03:38:41;;;;;;;4.07;0.85;;;;;10.50;99517.00;;;;5071819;28;20218;-79
2021/12/05 03:41:09;;;;;;;3.17;1.10;;;;;10.50;99518.00;;;;5053521;28;20199;-80
2021/12/05 03:43:39;;;;;;;2.70;0.88;;;;;10.50;99514.00;;;;5066902;28;20196;-80
2021/12/05 03:46:07;;;;;;;5.32;1.35;;;;;10.50;99515.00;;;;5070882;28;20203;-81
2021/12/05 03:48:43;;;;;;;6.80;1.25;;;;;10.50;99509.00;;;;5069524;28;21009;-80
2021/12/05 03:51:14;;;;;;;3.78;1.10;;;;;10.60;99514.00;;;;5070526;28;20217;-80
2021/12/05 03:53:41;;;;;;;2.75;1.30;;;;;10.60;99517.00;;;;5069836;28;20188;-80
2021/12/05 03:56:09;;;;;;;5.03;1.00;;;;;10.60;99511.00;;;;5071045;28;20214;-80
2021/12/05 03:58:38;;;;;;;3.03;1.00;;;;;10.60;99511.00;;;;5048799;28;20207;-80
2021/12/05 04:01:07;;;;;;;1.80;0.77;;;;;10.60;99512.00;;;;5077776;28;20575;-80
2021/12/05 04:03:35;;;;;;;3.42;0.80;;;;;10.60;99518.00;;;;5069246;28;20183;-80
2021/12/05 04:06:05;;;;;;;2.75;0.90;;;;;10.60;99511.00;;;;5069725;28;20206;-80
2021/12/05 04:08:32;;;;;;;2.90;1.05;;;;;10.60;99510.00;;;;5069510;28;20195;-81
2021/12/05 04:11:05;;;;;;;10.43;1.40;;;;;10.60;99517.00;;;;5070213;28;20225;-81
2021/12/05 04:13:33;;;;;;;2.95;0.88;;;;;10.60;99513.00;;;;5083157;28;20198;-81
2021/12/05 04:16:05;;;;;;;4.45;1.27;;;;;10.60;99511.00;;;;5085473;28;20208;-80
2021/12/05 04:18:33;;;;;;;2.95;1.38;;;;;10.60;99517.00;;;;5082301;28;20199;-81
2021/12/05 04:21:01;;;;;;;3.05;1.00;;;;;10.60;99512.00;;;;5069602;28;20214;-80
2021/12/05 04:23:29;;;;;;;5.63;1.63;;;;;10.70;99508.00;;;;5069438;28;20203;-80
2021/12/05 04:25:57;;;;;;;4.63;1.17;;;;;10.60;99521.00;;;;5068926;28;20199;-81
2021/12/05 04:28:25;;;;;;;2.72;0.90;;;;;10.60;99522.00;;;;5071425;28;20202;-80
2021/12/05 04:30:52;;;;;;;3.30;1.30;;;;;10.60;99519.00;;;;5063073;28;20588;-80
2021/12/05 04:33:21;;;;;;;2.45;0.98;;;;;10.60;99520.00;;;;5086414;28;20252;-81
2021/12/05 04:35:49;;;;;;;5.88;1.67;;;;;10.60;99527.00;;;;5081928;28;20191;-80
2021/12/05 04:38:16;;;;;;;2.75;1.38;;;;;10.60;99524.00;;;;5088442;28;20218;-80
2021/12/05 04:40:45;;;;;;;4.07;1.02;;;;;10.70;99526.00;;;;5078044;28;20187;-80
2021/12/05 04:43:12;;;;;;;3.08;1.40;;;;;10.70;99532.00;;;;5082072;28;20198;-80
2021/12/05 04:45:40;;;;;;;2.05;1.00;;;;;10.70;99524.00;;;;5078881;28;20200;-80
2021/12/05 04:48:09;;;;;;;3.28;1.08;;;;;10.70;99522.00;;;;5061047;28;21022;-79
2021/12/05 04:50:39;;;;;;;3.10;1.38;;;;;10.70;99517.00;;;;5057871;28;20900;-80
2021/12/05 04:53:08;;;;;;;3.63;0.88;;;;;10.70;99525.00;;;;5068043;28;20199;-81
2021/12/05 04:55:35;;;;;;;3.78;1.05;;;;;10.70;99520.00;;;;5068869;28;20668;-80
2021/12/05 04:58:05;;;;;;;4.03;1.20;;;;;10.70;99526.00;;;;5073276;28;20195;-80
2021/12/05 05:00:36;;;;;;;3.47;1.30;;;;;10.70;99524.00;;;;5075863;28;20194;-80
2021/12/05 05:03:03;;;;;;;3.70;1.50;;;;;10.80;99525.00;;;;5083469;28;20199;-80
2021/12/05 05:05:32;;;;;;;3.38;1.30;;;;;10.80;99526.00;;;;5058395;28;20215;-80
2021/12/05 05:08:01;;;;;;;5.57;1.40;;;;;10.80;99530.00;;;;5069974;28;20198;-80
2021/12/05 05:10:31;;;;;;;2.35;1.20;;;;;10.80;99525.00;;;;5068231;28;20223;-80
2021/12/05 05:12:59;;;;;;;3.65;1.23;;;;;10.80;99525.00;;;;5068655;28;20202;-80
2021/12/05 05:15:28;;;;;;;3.13;1.38;;;;;10.80;99528.00;;;;5069668;28;20191;-80
2021/12/05 05:17:57;;;;;;;2.60;1.20;;;;;10.80;99535.00;;;;5081355;28;20194;-80
2021/12/05 05:20:31;;;;;;;2.80;1.02;;;;;10.80;99529.00;;;;5088415;28;20209;-80
2021/12/05 05:23:18;;;;;;;2.85;1.45;;;;;10.80;99532.00;;;;5076138;28;20222;-80
2021/12/05 05:26:18;;;;;;;4.15;1.52;;;;;10.80;99533.00;;;;5077832;28;20198;-80
2021/12/05 05:29:06;;;;;;;2.53;1.40;;;;;10.80;99529.00;;;;5074464;28;20202;-81
2021/12/05 05:40:13;;;;;;;3.15;1.45;;;;;10.80;99547.00;;;;5058882;28;20282;-80
2021/12/05 05:45:34;;;;;;;3.42;1.75;;;;;10.80;99565.00;;;;5067553;28;20217;-80
2021/12/05 05:48:15;;;;;;;4.40;2.10;;;;;10.90;99567.00;;;;5069231;28;20290;-80
2021/12/05 05:50:45;;;;;;;2.97;1.75;;;;;10.80;99569.00;;;;5070712;28;20300;-80
2021/12/05 05:53:12;;;;;;;3.22;1.60;;;;;10.90;99578.00;;;;5071893;28;20195;-80
2021/12/05 05:55:41;;;;;;;5.72;2.42;;;;;10.90;99578.00;;;;5066855;28;20209;-80
2021/12/05 05:58:12;;;;;;;2.17;1.67;;;;;10.90;99573.00;;;;5068128;28;20214;-80
2021/12/05 06:00:52;;;;;;;4.25;2.28;;;;;10.90;99576.00;;;;5068034;28;20582;-80
2021/12/05 06:03:21;;;;;;;2.80;1.48;;;;;11.00;99588.00;;;;5067429;28;20203;-80
2021/12/05 06:05:51;;;;;;;4.82;2.20;;;;;11.00;99587.00;;;;5085375;28;20194;-81
2021/12/05 06:08:20;;;;;;;2.50;1.40;;;;;11.00;99592.00;;;;5087789;28;20209;-80
2021/12/05 06:10:49;;;;;;;3.95;1.98;;;;;11.00;99590.00;;;;5082019;28;20770;-80
2021/12/05 06:13:18;;;;;;;3.53;1.70;;;;;11.10;99594.00;;;;5067162;28;20610;-80
2021/12/05 06:15:46;;;;;;;3.65;2.00;;;;;11.10;99598.00;;;;5076831;28;20290;-80
2021/12/05 06:18:13;;;;;;;2.58;1.90;;;;;11.10;99605.00;;;;5086709;28;20202;-80
2021/12/05 06:20:41;;;;;;;3.28;2.00;;;;;11.10;99600.00;;;;5087998;28;20618;-80
2021/12/05 06:23:10;;;;;;;3.45;1.85;;;;;11.10;99602.00;;;;5078542;28;20250;-80
2021/12/05 06:25:40;;;;;;;4.03;1.55;;;;;11.10;99617.00;;;;5070165;28;20206;-80
2021/12/05 06:28:12;;;;;;;3.25;2.00;;;;;11.10;99620.00;;;;5084288;28;20202;-80
2021/12/05 06:30:48;;;;;;;2.83;2.17;;;;;11.20;99623.00;;;;5066167;28;20237;-81
2021/12/05 06:39:16;;;;;;;3.35;1.75;;;;;11.20;99628.00;;;;5067446;28;20264;-80
2021/12/05 06:41:59;;;;;;;7.72;1.77;;;;;11.30;99625.00;;;;5069647;28;20207;-80
2021/12/05 06:47:14;;;;;;;2.67;1.77;;;;;11.30;99634.00;;;;5064134;28;20337;-80
2021/12/05 06:49:43;;;;;;;2.17;1.60;;;;;11.30;99638.00;;;;5064239;28;20223;-79
2021/12/05 06:52:11;;;;;;;2.78;1.88;;;;;11.30;99635.00;;;;5058785;28;20250;-79
2021/12/05 06:54:40;;;;;;;2.58;1.98;;;;;11.30;99635.00;;;;5051702;28;20670;-80
2021/12/05 06:57:10;;;;;;;4.13;2.03;;;;;11.30;99645.00;;;;5064275;28;20221;-79
2021/12/05 06:59:41;;;;;;;5.90;2.20;;;;;11.40;99646.00;;;;5065109;28;20210;-79
2021/12/05 07:02:10;;;;;;;3.50;2.88;;;;;11.40;99648.00;;;;5063389;28;20199;-80
2021/12/05 07:04:51;;;;;;;3.70;2.20;;;;;11.40;99647.00;;;;5062537;28;20226;-79
2021/12/05 07:07:22;;;;;;;1.88;1.73;;;;;11.40;99649.00;;;;5068111;28;20206;-79
2021/12/05 07:09:50;;;;;;;3.60;2.20;;;;;11.40;99642.00;;;;5062360;28;20720;-80
2021/12/05 07:12:51;;;;;;;4.85;2.50;;;;;11.40;99651.00;;;;5066150;28;20218;-80
2021/12/05 07:15:30;;;;;;;2.60;2.10;;;;;11.40;99661.00;;;;5065545;28;20564;-79
2021/12/05 07:20:55;;;;;;;3.30;1.98;;;;;11.40;99663.00;;;;5063407;28;20692;-80
2021/12/05 07:23:37;;;;;;;2.60;1.95;;;;;11.40;99657.00;;;;5025754;28;20292;-80
2021/12/05 07:26:12;;;;;;;5.15;2.25;;;;;11.40;99656.00;;;;5026363;28;20232;-80
2021/12/05 07:42:26;;;;;;;2.83;1.92;;;;;11.40;99684.00;;;;5026023;28;20203;-80
2021/12/05 07:44:54;;;;;;;3.83;2.63;;;;;11.40;99688.00;;;;5027110;28;20285;-80
2021/12/05 07:47:29;;;;;;;3.40;2.40;;;;;11.40;99693.00;;;;5024781;28;20728;-79
2021/12/05 07:49:57;;;;;;;2.88;2.30;;;;;11.50;99691.00;;;;5025807;28;20277;-80
2021/12/05 07:52:27;;;;;;;2.88;2.20;;;;;11.50;99690.00;;;;5027412;28;20716;-79
2021/12/05 07:55:00;;;;;;;2.38;2.17;;;;;11.50;99684.00;;;;5025851;28;20192;-79
2021/12/05 07:57:33;;;;;;;4.50;2.42;;;;;11.50;99693.00;;;;5024702;28;20200;-79
2021/12/05 08:00:10;;;;;;;4.68;1.98;;;;;11.50;99691.00;;;;5030093;28;20188;-79
2021/12/05 08:16:27;;;;;;;2.65;1.88;;;;;11.50;99717.00;;;;5024962;28;20208;-79
2021/12/05 08:18:56;;;;;;;3.47;2.13;;;;;11.60;99724.00;;;;5028740;28;20199;-80
2021/12/05 08:21:24;;;;;;;3.33;2.20;;;;;11.60;99727.00;;;;5035817;28;21045;-79
2021/12/05 08:23:51;;;;;;;2.80;1.52;;;;;11.60;99726.00;;;;5071545;28;20199;-79
2021/12/05 08:26:22;;;;;;;2.72;2.38;;;;;11.60;99723.00;;;;5071221;28;20195;-78
2021/12/05 08:29:04;;;;;;;2.50;1.90;;;;;11.70;99733.00;;;;5072098;28;20579;-78
2021/12/05 08:31:44;;;;;;;3.08;2.05;;;;;11.70;99747.00;;;;5068743;28;20250;-78
2021/12/05 08:34:35;;;;;;;2.28;1.88;;;;;11.70;99743.00;;;;5070724;28;20353;-78
2021/12/05 08:43:01;;;;;;;3.38;1.83;;;;;11.70;99749.00;;;;5068099;28;20282;-79
2021/12/05 09:22:00;;;;;;;3.55;2.42;;;;;11.80;99819.00;;;;5085582;28;20232;-79
2021/12/05 09:24:50;;;;;;;5.10;2.47;;;;;11.80;99829.00;;;;5085454;28;20194;-78
2021/12/05 09:27:47;;;;;;;2.92;2.47;;;;;11.90;99834.00;;;;5069088;28;20472;-80
2021/12/05 09:30:49;;;;;;;2.85;2.50;;;;;11.90;99833.00;;;;5070944;28;20198;-79
2021/12/05 09:39:31;;;;;;;3.20;2.40;;;;;12.00;99851.00;;;;5068808;28;20497;-80
2021/12/05 10:07:02;;;;;;;4.25;2.95;;;;;12.10;99874.00;;;;5066572;28;20719;-79
2021/12/05 10:09:54;;;;;;;5.07;3.63;;;;;12.10;99875.00;;;;5076874;28;20659;-79
2021/12/05 10:12:50;;;;;;;3.65;2.97;;;;;12.10;99886.00;;;;5067372;28;20202;-79
2021/12/05 10:15:37;;;;;;;3.45;2.65;;;;;12.20;99888.00;;;;5078288;28;20313;-78
2021/12/05 10:38:13;;;;;;;4.00;3.30;;;;;12.40;99915.00;;;;5054248;28;20752;-82
2021/12/05 10:40:46;;;;;;;4.57;3.17;;;;;12.40;99912.00;;;;5045265;28;20204;-81
2021/12/05 10:43:16;;;;;;;4.57;3.65;;;;;12.50;99916.00;;;;5045305;28;20234;-82
2021/12/05 10:45:48;;;;;;;3.80;3.25;;;;;12.50;99924.00;;;;5045689;28;20223;-82
2021/12/05 10:48:23;;;;;;;5.15;4.05;;;;;12.50;99921.00;;;;5045049;28;20215;-81
2021/12/05 10:50:54;;;;;;;5.07;3.35;;;;;12.50;99923.00;;;;5044975;28;20226;-82
2021/12/05 10:53:32;;;;;;;4.00;3.33;;;;;12.50;99920.00;;;;5044222;28;20231;-81
2021/12/05 10:56:04;;;;;;;4.85;3.50;;;;;12.60;99923.00;;;;5056101;28;20218;-82
2021/12/05 10:58:39;;;;;;;4.53;3.58;;;;;12.50;99922.00;;;;5064386;28;20198;-82
2021/12/05 11:01:12;;;;;;;4.40;3.47;;;;;12.60;99926.00;;;;5064451;28;20202;-81
2021/12/05 11:03:40;;;;;;;5.18;3.70;;;;;12.60;99923.00;;;;5045066;28;20200;-82
2021/12/05 11:06:31;;;;;;;4.10;3.33;;;;;12.60;99922.00;;;;5037660;28;20200;-81
2021/12/05 11:09:01;;;;;;;4.72;3.55;;;;;12.70;99934.00;;;;5041923;28;20626;-82
2021/12/05 11:11:30;;;;;;;5.05;3.88;;;;;12.70;99927.00;;;;5050993;28;20215;-82
2021/12/05 11:14:01;;;;;;;5.15;3.85;;;;;12.70;99934.00;;;;5051504;28;20302;-82
2021/12/05 11:16:40;;;;;;;6.10;3.97;;;;;12.70;99935.00;;;;5051166;28;20200;-82
2021/12/05 11:19:17;;;;;;;4.78;3.88;;;;;12.70;99944.00;;;;5042982;28;20217;-81
2021/12/05 11:21:50;;;;;;;5.60;3.90;;;;;12.80;99951.00;;;;5031299;28;20199;-81
2021/12/05 11:24:21;;;;;;;5.28;3.85;;;;;12.80;99956.00;;;;5030210;28;20204;-81
2021/12/05 11:27:08;;;;;;;5.22;4.22;;;;;12.80;99951.00;;;;5046794;28;20227;-81
2021/12/05 11:30:00;;;;;;;5.25;4.00;;;;;12.80;99964.00;;;;5050904;28;20203;-82
2021/12/05 11:32:38;;;;;;;4.50;3.42;;;;;12.90;99960.00;;;;5050602;28;20285;-80
2021/12/05 11:35:14;;;;;;;4.25;3.33;;;;;12.80;99964.00;;;;5050518;28;20227;-82
2021/12/05 11:37:51;;;;;;;4.82;3.83;;;;;12.80;99965.00;;;;5033278;28;20834;-82
2021/12/05 11:40:18;;;;;;;4.20;3.42;;;;;12.90;99970.00;;;;5050476;28;20210;-82
2021/12/05 11:42:53;;;;;;;4.40;3.30;;;;;12.90;99968.00;;;;5050407;28;20203;-82
2021/12/05 11:45:21;;;;;;;4.82;3.70;;;;;13.00;99975.00;;;;5050435;28;20214;-82
2021/12/05 11:47:51;;;;;;;4.43;3.55;;;;;13.00;99976.00;;;;5050617;28;20200;-82
2021/12/05 11:50:19;;;;;;;4.55;3.28;;;;;13.00;99977.00;;;;5050176;28;20214;-82
2021/12/05 11:52:49;;;;;;;5.82;3.75;;;;;13.00;99981.00;;;;5045390;28;20208;-82
2021/12/05 11:55:25;;;;;;;5.22;3.83;;;;;13.00;99982.00;;;;5049661;28;20242;-81
2021/12/05 11:57:52;;;;;;;5.80;3.67;;;;;13.10;99976.00;;;;5050400;28;20615;-82
2021/12/05 12:00:23;;;;;;;4.40;3.63;;;;;13.10;99982.00;;;;5037025;28;20200;-82
2021/12/05 12:02:52;;;;;;;4.28;3.40;;;;;13.10;99987.00;;;;5030500;28;20211;-82
2021/12/05 12:05:22;;;;;;;4.68;3.35;;;;;13.20;99995.00;;;;5031918;28;20234;-81
2021/12/05 12:07:54;;;;;;;4.13;3.40;;;;;13.10;99993.00;;;;5049890;28;20203;-82
2021/12/05 12:10:24;;;;;;;5.68;3.65;;;;;13.20;99997.00;;;;5039823;28;20647;-81
2021/12/05 12:12:55;;;;;;;4.03;3.38;;;;;13.20;100004.00;;;;5030827;28;20196;-83
2021/12/05 12:15:25;;;;;;;5.13;4.07;;;;;13.20;100004.00;;;;5029548;28;20224;-81
2021/12/05 12:18:03;;;;;;;4.57;3.35;;;;;13.20;100014.00;;;;5029324;28;21042;-81
2021/12/05 12:20:33;;;;;;;4.72;3.85;;;;;13.30;100012.00;;;;5030107;28;20202;-82
2021/12/05 12:23:00;;;;;;;4.68;3.67;;;;;13.30;100009.00;;;;5030854;28;20696;-82
2021/12/05 12:25:31;;;;;;;4.53;3.70;;;;;13.20;100015.00;;;;5048610;28;20265;-82
2021/12/05 12:27:59;;;;;;;4.97;3.90;;;;;13.30;100019.00;;;;5035049;28;20219;-81
2021/12/05 12:30:28;;;;;;;4.78;3.47;;;;;13.30;100021.00;;;;5029471;28;20207;-82
2021/12/05 12:33:03;;;;;;;4.43;3.40;;;;;13.30;100023.00;;;;5042909;28;20199;-81
2021/12/05 12:35:33;;;;;;;3.50;3.00;;;;;13.40;100029.00;;;;5049447;28;20223;-81
2021/12/05 12:38:03;;;;;;;4.32;3.00;;;;;13.40;100030.00;;;;5049160;28;20237;-81
2021/12/05 12:40:41;;;;;;;4.43;3.60;;;;;13.40;100029.00;;;;5049074;28;20191;-80
2021/12/05 12:43:11;;;;;;;4.47;3.58;;;;;13.50;100030.00;;;;5049355;28;20199;-80
2021/12/05 12:45:40;;;;;;;5.35;3.65;;;;;13.50;100030.00;;;;5029397;28;20213;-81
2021/12/05 12:48:15;;;;;;;5.53;2.92;;;;;13.50;100029.00;;;;5029389;28;20200;-81
2021/12/05 12:50:51;;;;;;;5.38;3.65;;;;;13.50;100029.00;;;;5029604;28;20302;-81
2021/12/05 12:53:26;;;;;;;2.95;2.25;;;;;13.60;100043.00;;;;5034294;28;20338;-81
2021/12/05 12:55:57;;;;;;;4.75;3.00;;;;;13.70;100044.00;;;;5048987;28;20223;-81
2021/12/05 12:58:42;;;;;;;3.88;3.00;;;;;13.60;100056.00;;;;5048564;28;20818;-81
2021/12/05 13:01:18;;;;;;;4.05;3.30;;;;;13.70;100053.00;;;;5040165;28;20730;-80
2021/12/05 13:12:53;;;;;;;3.15;2.45;;;;;13.60;100063.00;;;;5029571;28;20246;-81
2021/12/05 13:15:34;;;;;;;3.53;2.70;;;;;13.70;100073.00;;;;5029078;28;20231;-81
2021/12/05 13:18:05;;;;;;;4.03;3.30;;;;;13.80;100075.00;;;;5039998;28;20290;-80
2021/12/05 13:20:52;;;;;;;3.90;2.95;;;;;13.70;100075.00;;;;5048370;28;20253;-81
2021/12/05 13:23:26;;;;;;;3.42;2.72;;;;;13.80;100079.00;;;;5047287;28;20266;-80
2021/12/05 13:26:19;;;;;;;3.38;2.90;;;;;13.70;100069.00;;;;5047359;28;20231;-80
2021/12/05 13:28:49;;;;;;;4.65;3.30;;;;;13.80;100080.00;;;;5048103;28;20206;-81
2021/12/05 13:31:39;;;;;;;5.13;3.20;;;;;13.70;100084.00;;;;5047809;28;20206;-81
2021/12/05 13:34:39;;;;;;;3.35;2.85;;;;;13.60;100087.00;;;;5030613;28;20218;-80
2021/12/05 13:37:34;;;;;;;3.80;3.10;;;;;13.60;100088.00;;;;5028205;28;20204;-80
2021/12/05 13:40:17;;;;;;;3.65;2.85;;;;;13.70;100099.00;;;;5028303;28;20717;-80
2021/12/05 13:42:48;;;;;;;3.58;2.80;;;;;13.70;100107.00;;;;5028450;28;20215;-81
2021/12/05 13:45:23;;;;;;;4.32;3.42;;;;;13.60;100101.00;;;;5027815;28;20204;-81
2021/12/05 13:48:15;;;;;;;4.43;3.28;;;;;13.50;100106.00;;;;5028131;28;20198;-81
2021/12/05 13:50:57;;;;;;;3.92;2.92;;;;;13.50;100109.00;;;;5027948;28;20285;-80
2021/12/05 13:53:32;;;;;;;4.43;3.05;;;;;13.60;100108.00;;;;5036890;28;20654;-81
2021/12/05 13:56:04;;;;;;;5.78;4.07;;;;;13.60;100110.00;;;;5047714;28;20289;-80
2021/12/05 13:58:45;;;;;;;4.55;3.50;;;;;13.50;100112.00;;;;5047390;28;20611;-80
2021/12/05 14:01:16;;;;;;;4.32;3.50;;;;;13.60;100120.00;;;;5047097;28;20242;-80
2021/12/05 14:03:59;;;;;;;3.80;3.03;;;;;13.50;100124.00;;;;5048353;28;20207;-81
2021/12/05 14:06:47;;;;;;;4.07;3.13;;;;;13.50;100137.00;;;;5046927;28;20195;-80
2021/12/05 14:09:19;;;;;;;3.35;2.25;;;;;13.50;100135.00;;;;5039624;28;20208;-80
2021/12/05 14:11:51;;;;;;;4.25;3.05;;;;;13.50;100143.00;;;;5047913;28;20219;-81
2021/12/05 14:14:21;;;;;;;3.78;2.92;;;;;13.50;100159.00;;;;5047781;28;20210;-81
2021/12/05 14:16:50;;;;;;;3.28;2.70;;;;;13.50;100155.00;;;;5048390;28;20235;-81
2021/12/05 14:19:19;;;;;;;3.00;2.70;;;;;13.50;100169.00;;;;5047252;28;20200;-80
2021/12/05 14:21:48;;;;;;;3.90;3.03;;;;;13.50;100169.00;;;;5048057;28;20211;-81
2021/12/05 14:24:19;;;;;;;3.92;2.97;;;;;13.50;100176.00;;;;5047581;28;20204;-80
2021/12/05 14:26:49;;;;;;;3.25;2.88;;;;;13.50;100189.00;;;;5046271;28;20206;-80
2021/12/05 14:29:19;;;;;;;3.90;2.92;;;;;13.50;100197.00;;;;5047479;28;20195;-80
2021/12/05 14:31:49;;;;;;;4.22;3.20;;;;;13.40;100197.00;;;;5048322;28;20195;-81
2021/12/05 14:34:18;;;;;;;3.70;3.10;;;;;13.40;100201.00;;;;5047658;28;20685;-80
2021/12/05 14:36:49;;;;;;;3.67;3.35;;;;;13.40;100213.00;;;;5048430;28;20725;-81
2021/12/05 14:39:26;;;;;;;3.65;3.05;;;;;13.30;100219.00;;;;5047472;28;20216;-81
2021/12/05 14:41:58;;;;;;;3.38;2.60;;;;;13.30;100227.00;;;;5050232;28;20203;-80
2021/12/05 14:44:25;;;;;;;3.78;2.97;;;;;13.30;100232.00;;;;5040011;28;20207;-81
2021/12/05 14:46:57;;;;;;;3.10;2.80;;;;;13.20;100230.00;;;;5051966;28;20207;-80
2021/12/05 14:49:27;;;;;;;3.35;2.92;;;;;13.20;100241.00;;;;5052089;28;20665;-80
2021/12/05 14:51:55;;;;;;;3.70;3.30;;;;;13.20;100239.00;;;;5051934;28;20202;-81
2021/12/05 14:54:32;;;;;;;4.68;3.33;;;;;13.10;100249.00;;;;5050492;28;20232;-81
2021/12/05 14:57:00;;;;;;;5.22;3.03;;;;;13.20;100252.00;;;;5051478;28;20700;-80
2021/12/05 14:59:28;;;;;;;3.72;3.35;;;;;13.10;100255.00;;;;5048622;28;20215;-81
2021/12/05 15:01:58;;;;;;;3.50;3.15;;;;;13.10;100271.00;;;;5031525;28;20585;-81
2021/12/05 15:04:29;;;;;;;3.80;3.25;;;;;13.10;100271.00;;;;5031468;28;20219;-81
2021/12/05 15:06:57;;;;;;;3.83;3.35;;;;;13.10;100277.00;;;;5031513;28;20208;-81
2021/12/05 15:09:29;;;;;;;4.25;3.53;;;;;13.10;100280.00;;;;5031211;28;20215;-81
2021/12/05 15:12:05;;;;;;;4.05;3.65;;;;;13.10;100277.00;;;;5031428;28;20645;-80
2021/12/05 15:14:34;;;;;;;4.38;3.50;;;;;13.10;100289.00;;;;5039390;28;20191;-81
2021/12/05 15:17:05;;;;;;;5.80;4.13;;;;;13.00;100289.00;;;;5043899;28;20224;-81
2021/12/05 15:19:32;;;;;;;5.35;4.38;;;;;13.00;100296.00;;;;5039486;28;20200;-81
2021/12/05 15:22:00;;;;;;;5.13;4.30;;;;;13.00;100298.00;;;;5051163;28;20204;-81
2021/12/05 15:24:30;;;;;;;4.57;4.00;;;;;13.00;100301.00;;;;5050311;28;20207;-81
2021/12/05 15:26:59;;;;;;;4.72;3.88;;;;;12.90;100309.00;;;;5050536;28;20311;-80
2021/12/05 15:29:28;;;;;;;6.10;4.30;;;;;12.90;100310.00;;;;5050569;28;20200;-80
2021/12/05 15:31:57;;;;;;;4.70;4.10;;;;;12.90;100315.00;;;;5050077;28;20207;-80
2021/12/05 15:34:29;;;;;;;4.97;4.47;;;;;12.90;100324.00;;;;5049189;28;20217;-81
2021/12/05 15:36:58;;;;;;;5.28;3.67;;;;;12.90;100330.00;;;;5050692;28;20230;-80
2021/12/05 15:39:30;;;;;;;4.32;3.90;;;;;12.90;100331.00;;;;5046345;28;20212;-82
2021/12/05 15:41:59;;;;;;;4.95;3.97;;;;;12.90;100340.00;;;;5048019;28;20200;-81
2021/12/05 15:44:34;;;;;;;5.03;4.53;;;;;12.80;100346.00;;;;5048102;28;20283;-81
2021/12/05 15:47:06;;;;;;;4.13;3.72;;;;;12.80;100342.00;;;;5050499;28;20207;-79
2021/12/05 15:49:45;;;;;;;4.55;4.07;;;;;12.70;100349.00;;;;5050374;28;20203;-80
2021/12/05 15:52:12;;;;;;;4.57;3.88;;;;;12.80;100355.00;;;;5049229;28;20199;-79
2021/12/05 15:54:43;;;;;;;4.45;3.92;;;;;12.80;100356.00;;;;5048484;28;20273;-81
2021/12/05 15:57:16;;;;;;;5.68;4.03;;;;;12.80;100359.00;;;;5048746;28;20223;-82
2021/12/05 15:59:46;;;;;;;5.45;4.38;;;;;12.80;100368.00;;;;5046786;28;20195;-82
2021/12/05 16:02:16;;;;;;;5.10;4.47;;;;;12.80;100367.00;;;;5049717;28;20206;-82
2021/12/05 16:04:44;;;;;;;5.97;5.38;;;;;12.80;100375.00;;;;5045904;28;20195;-82
2021/12/05 16:07:11;;;;;;;4.80;3.70;;;;;12.80;100388.00;;;;5048378;28;20579;-84
2021/12/05 16:09:43;;;;;;;5.65;4.20;;;;;12.70;100387.00;;;;5046253;28;20195;-81
2021/12/05 16:12:14;;;;;;;5.10;4.25;;;;;12.70;100392.00;;;;5044964;28;20211;-81
2021/12/05 16:14:45;;;;;;;7.00;5.25;;;;;12.70;100396.00;;;;5022172;28;20196;-81
2021/12/05 16:17:21;;;;;;;5.25;4.50;;;;;12.70;100395.00;;;;5014059;28;20327;-81
2021/12/05 16:20:10;;;;;;;9.40;6.57;;;;;12.60;100404.00;;;;5027739;28;20200;-82
2021/12/05 16:23:14;;;;;;;7.82;6.00;;;;;12.60;100401.00;;;;5026551;28;20207;-82
2021/12/05 16:25:48;;;;;;;6.80;5.72;;;;;12.60;100412.00;;;;5025292;28;20211;-81
2021/12/05 16:28:22;;;;;;;7.95;7.10;;;;;12.70;100408.00;;;;5028009;28;20585;-82